General Mariano Escobedo International Airport
MMMY : now visible

Airfield :











YOU CAN JOIN US ON...

 
LOGIN :

Register | Disclaimer

   EN    FR    IT 

 









Legend :    VFR   Marginal VFR   IFR   Intensive IFR   Very Intensive IFR
Visi :
Ceiling :
>= 8 km
>= 3000ft
5 to 8 km
1000 to 3000 ft
1500m to 5 km
500 to 1000 ft
800 to 1500m
200 to 500 ft
< 800m
< 200 ft
Symbols :   Thunderstorms  Fog  Heavy snow  Heavy precipitations  Wind > 20 kt






- Airport Elevation : 1278 ft
- IATA code : MTY


MMMY - General Mariano Escobedo International

CURRENT METAR :
  • 100643Z 00000KT 6SM SCT070 24/20 A2990 RMK 8/070

EXPIRED METARs :
  • 100540Z 35007KT 6SM SCT070 24/19 A2989 RMK SLP/// 5//// 9// 8/070 ISOL CU
  • 100441Z 16006KT 6SM FEW030 25/19 A2989 RMK 8/500

TAF TAF MMMY
Valid from the 10 at 06:00 until the 11 at 12:00 UTC


100523Z 1006/1112 16006KT 6SM HZ SCT030 TX29/1021Z TN20/1012Z
FM100900 34005KT 6SM HZ BKN015 OVC030
TEMPO 1010/1014 4SM RA
FM101600 10010KT 6SM HZ BKN020 OVC060
TEMPO 1021/1101 5SM TSRA BKN020CB



MET'MAP, your aeronautical weather chart ! - Copyright ORBIFLY December 2007 - Disclaimer

ORBIFLY MET'MAP TEAM :

Programming & Development : Alexandra Zaïnal
Concept & original design : Baudouin d'Aumeries
Assistance for programming : Marc-Olivier Méhu
Technical & hardware support : Manuel Goepfert

Contact : metmap@orbifly.com




SOURCES & CREDITS :

   NOAA       Earth
Advisory